sensor_id;sensor_type;location;lat;lon;timestamp;P1;durP1;ratioP1;P2;durP2;ratioP2
64351;SDS011;50680;52.626;-8.668;2023-01-01T14:29:28;3.78;;;3.58;;
64351;SDS011;50680;52.626;-8.668;2023-01-01T14:31:58;3.83;;;3.63;;
64351;SDS011;50680;52.626;-8.668;2023-01-01T14:34:29;4.18;;;3.88;;
64351;SDS011;50680;52.626;-8.668;2023-01-01T14:36:58;3.65;;;3.22;;
64351;SDS011;50680;52.626;-8.668;2023-01-01T14:44:32;3.47;;;3.28;;
64351;SDS011;50680;52.626;-8.668;2023-01-01T14:47:02;2.78;;;2.67;;
64351;SDS011;50680;52.626;-8.668;2023-01-01T14:49:34;2.95;;;2.75;;
64351;SDS011;50680;52.626;-8.668;2023-01-01T14:54:38;3.00;;;2.90;;
64351;SDS011;50680;52.626;-8.668;2023-01-01T14:59:48;3.40;;;2.72;;
64351;SDS011;50680;52.626;-8.668;2023-01-01T15:02:20;2.75;;;2.65;;
64351;SDS011;50680;52.626;-8.668;2023-01-01T15:05:08;2.78;;;2.67;;
64351;SDS011;50680;52.626;-8.668;2023-01-01T15:07:55;3.90;;;3.50;;
64351;SDS011;50680;52.626;-8.668;2023-01-01T15:10:25;3.35;;;3.15;;
64351;SDS011;50680;52.626;-8.668;2023-01-01T15:12:54;4.03;;;3.60;;
64351;SDS011;50680;52.626;-8.668;2023-01-01T15:18:15;2.92;;;2.72;;
64351;SDS011;50680;52.626;-8.668;2023-01-01T15:21:11;2.55;;;2.30;;
64351;SDS011;50680;52.626;-8.668;2023-01-01T15:23:56;2.55;;;2.40;;
64351;SDS011;50680;52.626;-8.668;2023-01-01T15:26:26;2.80;;;2.60;;
64351;SDS011;50680;52.626;-8.668;2023-01-01T15:29:32;2.50;;;2.30;;
64351;SDS011;50680;52.626;-8.668;2023-01-01T15:32:02;2.58;;;2.38;;
64351;SDS011;50680;52.626;-8.668;2023-01-01T15:37:13;8.75;;;7.22;;
64351;SDS011;50680;52.626;-8.668;2023-01-01T15:39:45;8.98;;;6.47;;
64351;SDS011;50680;52.626;-8.668;2023-01-01T15:47:52;4.43;;;2.92;;
64351;SDS011;50680;52.626;-8.668;2023-01-01T15:52:51;2.78;;;2.33;;
64351;SDS011;50680;52.626;-8.668;2023-01-01T15:55:28;2.92;;;2.72;;
64351;SDS011;50680;52.626;-8.668;2023-01-01T15:57:58;3.63;;;3.25;;
64351;SDS011;50680;52.626;-8.668;2023-01-01T16:00:29;4.25;;;3.85;;
64351;SDS011;50680;52.626;-8.668;2023-01-01T16:03:02;21.27;;;4.28;;
64351;SDS011;50680;52.626;-8.668;2023-01-01T16:05:46;7.70;;;3.65;;
64351;SDS011;50680;52.626;-8.668;2023-01-01T16:08:16;3.03;;;2.75;;
64351;SDS011;50680;52.626;-8.668;2023-01-01T16:10:46;3.40;;;2.90;;
64351;SDS011;50680;52.626;-8.668;2023-01-01T16:13:13;2.50;;;2.30;;
64351;SDS011;50680;52.626;-8.668;2023-01-01T16:18:27;3.97;;;2.40;;
64351;SDS011;50680;52.626;-8.668;2023-01-01T16:20:58;2.58;;;2.33;;
64351;SDS011;50680;52.626;-8.668;2023-01-01T16:23:26;3.83;;;2.45;;
64351;SDS011;50680;52.626;-8.668;2023-01-01T16:25:53;4.57;;;3.70;;
64351;SDS011;50680;52.626;-8.668;2023-01-01T16:28:20;4.70;;;3.60;;
64351;SDS011;50680;52.626;-8.668;2023-01-01T16:30:47;6.05;;;4.22;;
64351;SDS011;50680;52.626;-8.668;2023-01-01T16:33:20;7.22;;;4.60;;
64351;SDS011;50680;52.626;-8.668;2023-01-01T16:35:50;4.80;;;3.63;;
64351;SDS011;50680;52.626;-8.668;2023-01-01T16:38:17;5.90;;;3.75;;
64351;SDS011;50680;52.626;-8.668;2023-01-01T16:40:44;4.70;;;3.40;;
64351;SDS011;50680;52.626;-8.668;2023-01-01T16:43:13;8.13;;;3.78;;
64351;SDS011;50680;52.626;-8.668;2023-01-01T16:45:42;10.80;;;3.50;;
64351;SDS011;50680;52.626;-8.668;2023-01-01T16:48:09;8.82;;;3.17;;
64351;SDS011;50680;52.626;-8.668;2023-01-01T16:50:36;6.00;;;3.55;;
64351;SDS011;50680;52.626;-8.668;2023-01-01T16:53:03;5.63;;;3.92;;
64351;SDS011;50680;52.626;-8.668;2023-01-01T16:55:29;5.90;;;3.80;;
64351;SDS011;50680;52.626;-8.668;2023-01-01T16:57:56;6.95;;;3.75;;
64351;SDS011;50680;52.626;-8.668;2023-01-01T17:00:43;5.95;;;2.88;;
64351;SDS011;50680;52.626;-8.668;2023-01-01T17:03:10;7.43;;;3.60;;
64351;SDS011;50680;52.626;-8.668;2023-01-01T17:05:37;4.22;;;3.40;;
64351;SDS011;50680;52.626;-8.668;2023-01-01T17:08:09;5.90;;;3.58;;
64351;SDS011;50680;52.626;-8.668;2023-01-01T17:10:36;4.15;;;3.22;;
64351;SDS011;50680;52.626;-8.668;2023-01-01T17:13:03;8.95;;;4.15;;
64351;SDS011;50680;52.626;-8.668;2023-01-01T17:15:30;5.90;;;3.97;;
64351;SDS011;50680;52.626;-8.668;2023-01-01T17:17:57;6.47;;;4.70;;
64351;SDS011;50680;52.626;-8.668;2023-01-01T17:20:25;9.23;;;6.20;;
64351;SDS011;50680;52.626;-8.668;2023-01-01T17:22:52;9.27;;;5.05;;
64351;SDS011;50680;52.626;-8.668;2023-01-01T17:25:19;7.15;;;3.88;;
64351;SDS011;50680;52.626;-8.668;2023-01-01T17:27:46;8.02;;;4.20;;
64351;SDS011;50680;52.626;-8.668;2023-01-01T17:30:13;5.07;;;3.20;;
64351;SDS011;50680;52.626;-8.668;2023-01-01T17:32:40;4.78;;;3.53;;
64351;SDS011;50680;52.626;-8.668;2023-01-01T17:35:07;3.33;;;3.03;;
64351;SDS011;50680;52.626;-8.668;2023-01-01T17:37:34;3.08;;;2.78;;
64351;SDS011;50680;52.626;-8.668;2023-01-01T17:40:01;3.88;;;3.20;;
64351;SDS011;50680;52.626;-8.668;2023-01-01T17:42:28;4.65;;;3.65;;
64351;SDS011;50680;52.626;-8.668;2023-01-01T17:44:55;6.30;;;3.95;;
64351;SDS011;50680;52.626;-8.668;2023-01-01T17:47:22;4.57;;;3.38;;
64351;SDS011;50680;52.626;-8.668;2023-01-01T17:49:56;3.83;;;3.53;;
64351;SDS011;50680;52.626;-8.668;2023-01-01T17:52:25;4.60;;;3.70;;
64351;SDS011;50680;52.626;-8.668;2023-01-01T17:54:51;5.80;;;4.03;;
64351;SDS011;50680;52.626;-8.668;2023-01-01T17:57:18;4.55;;;3.60;;
64351;SDS011;50680;52.626;-8.668;2023-01-01T17:59:45;3.88;;;3.25;;
64351;SDS011;50680;52.626;-8.668;2023-01-01T18:02:12;4.30;;;3.72;;
64351;SDS011;50680;52.626;-8.668;2023-01-01T18:04:40;4.28;;;3.60;;
64351;SDS011;50680;52.626;-8.668;2023-01-01T18:07:07;6.82;;;4.15;;
64351;SDS011;50680;52.626;-8.668;2023-01-01T18:09:34;5.82;;;4.90;;
64351;SDS011;50680;52.626;-8.668;2023-01-01T18:12:04;8.38;;;5.78;;
64351;SDS011;50680;52.626;-8.668;2023-01-01T18:14:31;8.85;;;5.50;;
64351;SDS011;50680;52.626;-8.668;2023-01-01T18:16:58;6.30;;;4.72;;
64351;SDS011;50680;52.626;-8.668;2023-01-01T18:19:25;11.80;;;5.20;;
64351;SDS011;50680;52.626;-8.668;2023-01-01T18:21:53;7.82;;;5.47;;
64351;SDS011;50680;52.626;-8.668;2023-01-01T18:24:19;7.28;;;5.15;;
64351;SDS011;50680;52.626;-8.668;2023-01-01T18:26:46;8.77;;;5.60;;
64351;SDS011;50680;52.626;-8.668;2023-01-01T18:29:13;17.15;;;6.82;;
64351;SDS011;50680;52.626;-8.668;2023-01-01T18:31:40;119.28;;;13.40;;
64351;SDS011;50680;52.626;-8.668;2023-01-01T18:34:08;46.05;;;8.27;;
64351;SDS011;50680;52.626;-8.668;2023-01-01T18:36:35;94.32;;;10.68;;
64351;SDS011;50680;52.626;-8.668;2023-01-01T18:39:21;12.90;;;7.57;;
64351;SDS011;50680;52.626;-8.668;2023-01-01T18:44:19;24.15;;;11.68;;
64351;SDS011;50680;52.626;-8.668;2023-01-01T18:47:00;89.82;;;14.52;;
64351;SDS011;50680;52.626;-8.668;2023-01-01T18:49:37;304.40;;;22.70;;
64351;SDS011;50680;52.626;-8.668;2023-01-01T18:52:10;203.93;;;19.35;;
64351;SDS011;50680;52.626;-8.668;2023-01-01T18:57:34;15.13;;;8.70;;
64351;SDS011;50680;52.626;-8.668;2023-01-01T19:02:45;91.18;;;16.35;;
64351;SDS011;50680;52.626;-8.668;2023-01-01T19:05:19;43.58;;;15.13;;
64351;SDS011;50680;52.626;-8.668;2023-01-01T19:10:53;184.43;;;20.25;;
64351;SDS011;50680;52.626;-8.668;2023-01-01T19:13:28;158.20;;;24.45;;
64351;SDS011;50680;52.626;-8.668;2023-01-01T19:18:46;94.57;;;19.02;;
64351;SDS011;50680;52.626;-8.668;2023-01-01T19:26:36;213.75;;;24.25;;
64351;SDS011;50680;52.626;-8.668;2023-01-01T19:31:49;149.20;;;23.05;;
64351;SDS011;50680;52.626;-8.668;2023-01-01T19:34:17;210.93;;;28.90;;
64351;SDS011;50680;52.626;-8.668;2023-01-01T19:36:44;80.10;;;18.95;;
64351;SDS011;50680;52.626;-8.668;2023-01-01T19:39:11;115.30;;;22.30;;
64351;SDS011;50680;52.626;-8.668;2023-01-01T19:41:39;33.13;;;18.13;;
64351;SDS011;50680;52.626;-8.668;2023-01-01T19:44:06;246.77;;;26.08;;
64351;SDS011;50680;52.626;-8.668;2023-01-01T19:46:35;52.70;;;17.08;;
64351;SDS011;50680;52.626;-8.668;2023-01-01T19:49:02;33.70;;;19.08;;
64351;SDS011;50680;52.626;-8.668;2023-01-01T19:51:29;31.73;;;20.05;;
64351;SDS011;50680;52.626;-8.668;2023-01-01T19:53:56;32.05;;;18.77;;
64351;SDS011;50680;52.626;-8.668;2023-01-01T19:56:23;170.32;;;28.15;;
64351;SDS011;50680;52.626;-8.668;2023-01-01T19:58:50;418.23;;;42.63;;
64351;SDS011;50680;52.626;-8.668;2023-01-01T20:01:17;100.55;;;14.98;;
64351;SDS011;50680;52.626;-8.668;2023-01-01T20:03:44;526.85;;;50.25;;
64351;SDS011;50680;52.626;-8.668;2023-01-01T20:06:21;24.73;;;12.02;;
64351;SDS011;50680;52.626;-8.668;2023-01-01T20:08:49;356.98;;;33.17;;
64351;SDS011;50680;52.626;-8.668;2023-01-01T20:11:15;149.57;;;23.55;;
64351;SDS011;50680;52.626;-8.668;2023-01-01T20:13:42;334.40;;;36.95;;
64351;SDS011;50680;52.626;-8.668;2023-01-01T20:16:09;275.73;;;25.45;;
64351;SDS011;50680;52.626;-8.668;2023-01-01T20:18:36;179.73;;;22.00;;
64351;SDS011;50680;52.626;-8.668;2023-01-01T20:21:03;24.88;;;12.10;;
64351;SDS011;50680;52.626;-8.668;2023-01-01T20:23:52;69.97;;;16.50;;
64351;SDS011;50680;52.626;-8.668;2023-01-01T20:26:19;57.65;;;15.10;;
64351;SDS011;50680;52.626;-8.668;2023-01-01T20:28:46;56.80;;;16.05;;
64351;SDS011;50680;52.626;-8.668;2023-01-01T20:31:32;100.53;;;19.23;;
64351;SDS011;50680;52.626;-8.668;2023-01-01T20:33:58;267.52;;;33.90;;
64351;SDS011;50680;52.626;-8.668;2023-01-01T20:36:25;926.33;;;88.60;;
64351;SDS011;50680;52.626;-8.668;2023-01-01T20:39:11;500.48;;;49.28;;
64351;SDS011;50680;52.626;-8.668;2023-01-01T20:41:38;51.47;;;16.15;;
64351;SDS011;50680;52.626;-8.668;2023-01-01T20:44:04;37.22;;;16.48;;
64351;SDS011;50680;52.626;-8.668;2023-01-01T20:46:31;108.85;;;22.92;;
64351;SDS011;50680;52.626;-8.668;2023-01-01T20:48:58;62.03;;;20.35;;
64351;SDS011;50680;52.626;-8.668;2023-01-01T20:51:25;265.42;;;31.88;;
64351;SDS011;50680;52.626;-8.668;2023-01-01T20:53:52;444.17;;;44.97;;
64351;SDS011;50680;52.626;-8.668;2023-01-01T20:56:19;103.03;;;21.33;;
64351;SDS011;50680;52.626;-8.668;2023-01-01T20:58:46;28.48;;;15.05;;
64351;SDS011;50680;52.626;-8.668;2023-01-01T21:01:17;34.75;;;17.60;;
64351;SDS011;50680;52.626;-8.668;2023-01-01T21:03:44;159.00;;;26.50;;
64351;SDS011;50680;52.626;-8.668;2023-01-01T21:06:11;256.08;;;34.17;;
64351;SDS011;50680;52.626;-8.668;2023-01-01T21:08:43;561.10;;;55.08;;
64351;SDS011;50680;52.626;-8.668;2023-01-01T21:11:12;285.45;;;33.95;;
64351;SDS011;50680;52.626;-8.668;2023-01-01T21:13:39;26.23;;;12.20;;
64351;SDS011;50680;52.626;-8.668;2023-01-01T21:18:45;228.07;;;27.15;;
64351;SDS011;50680;52.626;-8.668;2023-01-01T21:21:16;32.47;;;11.98;;
64351;SDS011;50680;52.626;-8.668;2023-01-01T21:23:46;72.75;;;18.05;;
64351;SDS011;50680;52.626;-8.668;2023-01-01T21:26:14;50.17;;;16.48;;
64351;SDS011;50680;52.626;-8.668;2023-01-01T21:28:41;29.63;;;14.80;;
64351;SDS011;50680;52.626;-8.668;2023-01-01T21:31:13;21.27;;;12.02;;
64351;SDS011;50680;52.626;-8.668;2023-01-01T21:36:18;19.35;;;10.82;;
64351;SDS011;50680;52.626;-8.668;2023-01-01T21:38:48;594.20;;;55.95;;
64351;SDS011;50680;52.626;-8.668;2023-01-01T21:41:27;683.53;;;69.13;;
64351;SDS011;50680;52.626;-8.668;2023-01-01T21:43:54;383.38;;;40.50;;
64351;SDS011;50680;52.626;-8.668;2023-01-01T21:51:31;76.05;;;15.00;;
64351;SDS011;50680;52.626;-8.668;2023-01-01T21:56:35;126.72;;;18.83;;
64351;SDS011;50680;52.626;-8.668;2023-01-01T22:01:54;25.45;;;10.65;;
64351;SDS011;50680;52.626;-8.668;2023-01-01T22:07:04;24.08;;;12.38;;
64351;SDS011;50680;52.626;-8.668;2023-01-01T22:10:09;23.15;;;13.15;;
64351;SDS011;50680;52.626;-8.668;2023-01-01T22:12:41;31.27;;;15.45;;
64351;SDS011;50680;52.626;-8.668;2023-01-01T22:20:31;25.33;;;14.10;;
64351;SDS011;50680;52.626;-8.668;2023-01-01T22:22:59;24.42;;;13.50;;
64351;SDS011;50680;52.626;-8.668;2023-01-01T22:25:30;26.17;;;12.70;;
64351;SDS011;50680;52.626;-8.668;2023-01-01T22:28:04;19.65;;;11.23;;
64351;SDS011;50680;52.626;-8.668;2023-01-01T22:33:37;24.83;;;12.10;;
64351;SDS011;50680;52.626;-8.668;2023-01-01T22:36:11;28.77;;;15.52;;
64351;SDS011;50680;52.626;-8.668;2023-01-01T22:38:39;23.20;;;12.73;;
64351;SDS011;50680;52.626;-8.668;2023-01-01T22:41:06;25.45;;;14.60;;
64351;SDS011;50680;52.626;-8.668;2023-01-01T22:43:35;32.92;;;15.70;;
64351;SDS011;50680;52.626;-8.668;2023-01-01T22:51:58;273.83;;;33.70;;
64351;SDS011;50680;52.626;-8.668;2023-01-01T22:54:25;269.73;;;31.10;;
64351;SDS011;50680;52.626;-8.668;2023-01-01T22:56:51;254.32;;;30.58;;
64351;SDS011;50680;52.626;-8.668;2023-01-01T22:59:18;148.45;;;17.45;;
64351;SDS011;50680;52.626;-8.668;2023-01-01T23:01:45;303.95;;;28.42;;
64351;SDS011;50680;52.626;-8.668;2023-01-01T23:04:12;255.20;;;26.05;;
64351;SDS011;50680;52.626;-8.668;2023-01-01T23:06:39;325.05;;;30.17;;
64351;SDS011;50680;52.626;-8.668;2023-01-01T23:09:06;48.92;;;11.98;;
64351;SDS011;50680;52.626;-8.668;2023-01-01T23:11:33;23.98;;;10.07;;
64351;SDS011;50680;52.626;-8.668;2023-01-01T23:14:00;25.70;;;11.52;;
64351;SDS011;50680;52.626;-8.668;2023-01-01T23:16:46;19.73;;;9.50;;
64351;SDS011;50680;52.626;-8.668;2023-01-01T23:19:12;22.23;;;12.30;;
64351;SDS011;50680;52.626;-8.668;2023-01-01T23:21:39;16.85;;;8.70;;
64351;SDS011;50680;52.626;-8.668;2023-01-01T23:24:10;517.00;;;50.47;;
64351;SDS011;50680;52.626;-8.668;2023-01-01T23:26:41;206.10;;;23.38;;
64351;SDS011;50680;52.626;-8.668;2023-01-01T23:29:09;236.10;;;20.83;;
64351;SDS011;50680;52.626;-8.668;2023-01-01T23:31:38;148.57;;;20.30;;
64351;SDS011;50680;52.626;-8.668;2023-01-01T23:34:07;86.65;;;13.32;;
64351;SDS011;50680;52.626;-8.668;2023-01-01T23:36:34;72.88;;;12.48;;
64351;SDS011;50680;52.626;-8.668;2023-01-01T23:39:02;146.00;;;18.35;;
64351;SDS011;50680;52.626;-8.668;2023-01-01T23:41:29;14.48;;;8.10;;
64351;SDS011;50680;52.626;-8.668;2023-01-01T23:43:56;17.58;;;8.27;;
64351;SDS011;50680;52.626;-8.668;2023-01-01T23:46:22;16.65;;;8.65;;
64351;SDS011;50680;52.626;-8.668;2023-01-01T23:48:50;11.82;;;8.15;;
64351;SDS011;50680;52.626;-8.668;2023-01-01T23:51:18;19.58;;;9.05;;
64351;SDS011;50680;52.626;-8.668;2023-01-01T23:53:45;17.58;;;8.20;;
64351;SDS011;50680;52.626;-8.668;2023-01-01T23:56:12;17.88;;;9.13;;
64351;SDS011;50680;52.626;-8.668;2023-01-01T23:58:39;48.45;;;11.43;;
